createdAt,value
2024-01-07T00:00:05.667Z,48.50
2024-01-07T00:02:33.951Z,48.50
2024-01-07T00:05:02.978Z,48.20
2024-01-07T00:07:32.875Z,48.10
2024-01-07T00:10:01.448Z,48.30
2024-01-07T00:12:30.523Z,48.30
2024-01-07T00:14:59.093Z,48.10
2024-01-07T00:17:27.760Z,48.30
2024-01-07T00:19:56.221Z,48.20
2024-01-07T00:22:24.758Z,48.20
2024-01-07T00:24:54.560Z,48.10
2024-01-07T00:27:23.087Z,48.10
2024-01-07T00:29:51.703Z,48.20
2024-01-07T00:32:20.231Z,48.20
2024-01-07T00:34:49.805Z,48.20
2024-01-07T00:37:19.655Z,48.20
2024-01-07T00:39:48.163Z,48.10
2024-01-07T00:42:17.994Z,48.20
2024-01-07T00:44:46.599Z,48.10
2024-01-07T00:47:15.159Z,48.20
2024-01-07T00:49:43.562Z,48.20
2024-01-07T00:52:11.994Z,48.20
2024-01-07T00:54:40.517Z,48.30
2024-01-07T00:57:08.940Z,48.90
2024-01-07T00:59:38.589Z,50.40
2024-01-07T01:02:07.092Z,50.60
2024-01-07T01:04:35.601Z,50.40
2024-01-07T01:07:04.249Z,50.00
2024-01-07T01:09:32.799Z,49.80
2024-01-07T01:12:01.196Z,49.80
2024-01-07T01:14:29.931Z,49.80
2024-01-07T01:16:59.773Z,49.90
2024-01-07T01:19:28.447Z,49.40
2024-01-07T01:21:56.948Z,49.50
2024-01-07T01:24:25.630Z,49.60
2024-01-07T01:26:54.158Z,49.50
2024-01-07T01:29:22.597Z,49.20
2024-01-07T01:31:51.118Z,49.20
2024-01-07T01:34:20.985Z,49.10
2024-01-07T01:36:49.529Z,49.00
2024-01-07T01:39:17.874Z,48.90
2024-01-07T01:41:46.486Z,48.70
2024-01-07T01:44:14.880Z,48.60
2024-01-07T01:46:43.579Z,48.60
2024-01-07T01:49:12.022Z,48.50
2024-01-07T01:51:42.183Z,48.40
2024-01-07T01:54:10.765Z,48.40
2024-01-07T01:56:39.415Z,48.40
2024-01-07T01:59:07.856Z,48.40
2024-01-07T02:01:36.450Z,48.30
2024-01-07T02:04:05.430Z,48.20
2024-01-07T02:06:34.189Z,48.10
2024-01-07T02:09:05.402Z,48.20
2024-01-07T02:11:33.860Z,48.10
2024-01-07T02:14:02.343Z,48.10
2024-01-07T02:16:30.809Z,48.20
2024-01-07T02:18:59.517Z,48.10
2024-01-07T02:21:28.056Z,48.00
2024-01-07T02:23:56.521Z,48.10
2024-01-07T02:26:27.079Z,48.00
2024-01-07T02:28:55.487Z,48.00
2024-01-07T02:31:23.914Z,48.00
2024-01-07T02:33:52.389Z,48.00
2024-01-07T02:36:20.774Z,47.80
2024-01-07T02:38:49.231Z,47.90
2024-01-07T02:41:17.517Z,47.90
2024-01-07T02:43:47.248Z,47.80
2024-01-07T02:46:16.977Z,47.90
2024-01-07T02:48:45.448Z,48.00
2024-01-07T02:51:13.871Z,47.70
2024-01-07T02:53:42.251Z,47.90
2024-01-07T02:56:10.697Z,47.90
2024-01-07T02:58:39.094Z,47.90
2024-01-07T03:01:12.974Z,47.90
2024-01-07T03:03:41.506Z,47.90
2024-01-07T03:06:09.941Z,48.10
2024-01-07T03:08:38.403Z,47.80
2024-01-07T03:11:09.522Z,48.00
2024-01-07T03:13:37.956Z,47.90
2024-01-07T03:16:08.038Z,47.80
2024-01-07T03:18:37.970Z,47.90
2024-01-07T03:21:06.790Z,47.80
2024-01-07T03:23:35.152Z,47.80
2024-01-07T03:26:03.538Z,47.90
2024-01-07T03:28:31.991Z,47.80
2024-01-07T03:31:00.546Z,47.90
2024-01-07T03:33:29.047Z,48.00
2024-01-07T03:35:58.825Z,47.90
2024-01-07T03:38:27.155Z,47.80
2024-01-07T03:40:55.475Z,47.80
2024-01-07T03:43:23.897Z,47.90
2024-01-07T03:45:52.488Z,47.90
2024-01-07T03:48:21.054Z,47.90
2024-01-07T03:50:49.666Z,47.90
2024-01-07T03:53:20.090Z,47.80
2024-01-07T03:55:48.490Z,47.90
2024-01-07T03:58:16.900Z,47.70
2024-01-07T04:00:45.459Z,47.80
2024-01-07T04:03:13.994Z,47.70
2024-01-07T04:05:42.653Z,47.90
2024-01-07T04:08:12.645Z,47.80
2024-01-07T04:10:42.404Z,47.90
2024-01-07T04:13:11.025Z,47.90
2024-01-07T04:15:39.665Z,47.80
2024-01-07T04:18:08.390Z,47.80
2024-01-07T04:20:36.982Z,47.80
2024-01-07T04:23:05.840Z,47.90
2024-01-07T04:25:34.236Z,47.80
2024-01-07T04:28:04.257Z,47.80
2024-01-07T04:30:32.819Z,47.80
2024-01-07T04:33:01.397Z,47.80
2024-01-07T04:35:29.758Z,47.90
2024-01-07T04:37:58.389Z,47.70
2024-01-07T04:40:26.822Z,47.80
2024-01-07T04:42:55.151Z,47.70
2024-01-07T04:45:25.056Z,47.70
2024-01-07T04:47:53.645Z,47.70
2024-01-07T04:50:22.527Z,47.80
2024-01-07T04:52:50.930Z,47.70
2024-01-07T04:55:19.695Z,47.70
2024-01-07T04:57:48.109Z,47.80
2024-01-07T05:00:17.789Z,47.70
2024-01-07T05:02:47.859Z,47.80
2024-01-07T05:05:16.539Z,47.70
2024-01-07T05:07:44.991Z,47.70
2024-01-07T05:10:13.608Z,47.80
2024-01-07T05:12:42.044Z,47.80
2024-01-07T05:15:11.452Z,47.70
2024-01-07T05:17:39.811Z,47.70
2024-01-07T05:20:11.722Z,47.70
2024-01-07T05:22:40.181Z,47.70
2024-01-07T05:25:09.361Z,47.80
2024-01-07T05:27:37.839Z,47.80
2024-01-07T05:30:09.282Z,47.70
2024-01-07T05:32:37.696Z,47.70
2024-01-07T05:35:07.079Z,47.80
2024-01-07T05:37:36.806Z,47.80
2024-01-07T05:40:07.301Z,47.70
2024-01-07T05:42:35.786Z,47.70
2024-01-07T05:45:04.911Z,47.80
2024-01-07T05:47:33.407Z,47.80
2024-01-07T05:50:01.911Z,47.80
2024-01-07T05:52:30.339Z,47.90
2024-01-07T05:55:00.259Z,47.90
2024-01-07T05:57:28.948Z,47.80
2024-01-07T05:59:57.353Z,47.90
2024-01-07T06:02:26.163Z,47.80
2024-01-07T06:04:54.651Z,47.80
2024-01-07T06:07:23.143Z,47.80
2024-01-07T06:09:51.565Z,47.80
2024-01-07T06:12:21.325Z,47.80
2024-01-07T06:14:49.685Z,47.90
2024-01-07T06:17:18.113Z,47.70
2024-01-07T06:19:46.602Z,47.80
2024-01-07T06:22:15.299Z,47.90
2024-01-07T06:24:43.861Z,47.90
2024-01-07T06:27:12.239Z,47.90
2024-01-07T06:29:42.093Z,47.90
2024-01-07T06:32:10.918Z,47.70
2024-01-07T06:34:39.331Z,47.80
2024-01-07T06:37:09.047Z,47.80
2024-01-07T06:39:37.539Z,47.80
2024-01-07T06:42:07.331Z,47.90
2024-01-07T06:44:35.711Z,47.80
2024-01-07T06:47:05.807Z,47.90
2024-01-07T06:49:34.544Z,47.90
2024-01-07T06:52:03.129Z,47.90
2024-01-07T06:54:31.613Z,48.00
2024-01-07T06:57:00.019Z,47.90
2024-01-07T06:59:28.425Z,47.90
2024-01-07T07:01:57.998Z,47.90
2024-01-07T07:04:27.873Z,47.90
2024-01-07T07:06:56.863Z,47.90
2024-01-07T07:09:25.282Z,47.90
2024-01-07T07:11:53.683Z,47.90
2024-01-07T07:14:22.083Z,47.90
2024-01-07T07:16:50.679Z,47.90
2024-01-07T07:19:19.178Z,47.80
2024-01-07T07:21:49.083Z,48.00
2024-01-07T07:24:17.592Z,47.90
2024-01-07T07:26:45.973Z,47.90
2024-01-07T07:29:14.435Z,47.90
2024-01-07T07:31:43.016Z,47.90
2024-01-07T07:34:13.154Z,47.90
2024-01-07T07:36:42.666Z,47.90
2024-01-07T07:39:14.525Z,47.90
2024-01-07T07:41:42.962Z,47.90
2024-01-07T07:44:11.380Z,48.70
2024-01-07T07:46:40.034Z,49.20
2024-01-07T07:49:08.411Z,49.10
2024-01-07T07:51:36.828Z,51.00
2024-01-07T07:54:05.564Z,50.40
2024-01-07T07:56:36.928Z,50.10
2024-01-07T07:59:05.416Z,50.10
2024-01-07T08:01:34.025Z,49.80
2024-01-07T08:04:03.991Z,49.20
2024-01-07T08:06:32.540Z,48.90
2024-01-07T08:09:00.925Z,48.60
2024-01-07T08:11:30.617Z,48.80
2024-01-07T08:14:00.395Z,49.00
2024-01-07T08:16:28.863Z,49.10
2024-01-07T08:18:58.357Z,46.40
2024-01-07T08:21:26.714Z,45.70
2024-01-07T08:23:55.017Z,45.60
2024-01-07T08:26:24.145Z,45.50
2024-01-07T08:28:53.497Z,45.50
2024-01-07T08:31:23.256Z,45.60
2024-01-07T08:33:51.857Z,45.60
2024-01-07T08:36:20.658Z,45.60
2024-01-07T08:38:49.078Z,45.70
2024-01-07T08:41:18.684Z,45.70
2024-01-07T08:43:48.223Z,45.70
2024-01-07T08:46:16.988Z,45.70
2024-01-07T08:48:46.962Z,45.70
2024-01-07T08:51:15.875Z,45.70
2024-01-07T08:53:44.328Z,45.70
2024-01-07T08:56:14.209Z,45.80
2024-01-07T08:58:43.460Z,45.80
2024-01-07T09:01:12.245Z,45.70
2024-01-07T09:03:40.761Z,45.60
2024-01-07T09:06:10.924Z,45.50
2024-01-07T09:08:39.673Z,45.20
2024-01-07T09:11:08.697Z,45.10
2024-01-07T09:13:37.086Z,45.30
2024-01-07T09:16:05.968Z,46.30
2024-01-07T09:18:34.419Z,47.40
2024-01-07T09:21:04.188Z,50.00
2024-01-07T09:23:34.630Z,49.50
2024-01-07T09:26:02.996Z,49.20
2024-01-07T09:28:31.481Z,49.30
2024-01-07T09:31:00.004Z,49.90
2024-01-07T09:33:28.749Z,50.30
2024-01-07T09:36:02.779Z,50.50
2024-01-07T09:38:40.522Z,50.90
2024-01-07T09:41:09.473Z,48.90
2024-01-07T09:43:38.130Z,47.40
2024-01-07T09:46:06.838Z,46.70
2024-01-07T09:48:35.350Z,46.50
2024-01-07T09:51:05.596Z,46.30
2024-01-07T09:53:36.985Z,46.40
2024-01-07T09:56:15.648Z,46.50
2024-01-07T09:58:44.575Z,46.60
2024-01-07T10:01:13.433Z,46.50
2024-01-07T10:03:41.900Z,46.60
2024-01-07T10:06:14.045Z,46.70
2024-01-07T10:08:42.737Z,47.50
2024-01-07T10:11:15.612Z,47.80
2024-01-07T10:13:43.982Z,47.40
2024-01-07T10:16:12.852Z,47.40
2024-01-07T10:18:41.450Z,47.40
2024-01-07T10:21:09.907Z,47.40
2024-01-07T10:23:39.309Z,47.40
2024-01-07T10:26:15.532Z,47.50
2024-01-07T10:28:53.905Z,47.50
2024-01-07T10:31:22.719Z,47.60
2024-01-07T10:33:52.393Z,47.40
2024-01-07T10:36:22.878Z,48.30
2024-01-07T10:38:52.068Z,48.50
2024-01-07T10:41:21.584Z,49.40
2024-01-07T10:43:52.448Z,49.20
2024-01-07T10:46:22.128Z,49.20
2024-01-07T10:48:57.394Z,49.30
2024-01-07T10:51:31.438Z,49.10
2024-01-07T10:54:01.284Z,49.00
2024-01-07T10:56:42.046Z,48.80
2024-01-07T10:59:12.851Z,48.50
2024-01-07T11:01:42.280Z,47.40
2024-01-07T11:04:20.410Z,46.80
2024-01-07T11:06:59.674Z,47.00
2024-01-07T11:09:38.308Z,46.70
2024-01-07T11:12:08.750Z,46.50
2024-01-07T11:14:40.889Z,46.70
2024-01-07T11:17:10.174Z,46.90
2024-01-07T11:19:38.905Z,47.00
2024-01-07T11:22:30.195Z,47.20
2024-01-07T11:25:00.391Z,47.40
2024-01-07T11:27:33.461Z,47.50
2024-01-07T11:30:08.781Z,47.70
2024-01-07T11:32:37.290Z,47.70
2024-01-07T11:35:06.968Z,47.90
2024-01-07T11:37:35.660Z,48.00
2024-01-07T11:40:09.750Z,48.10
2024-01-07T11:42:38.801Z,48.20
2024-01-07T11:45:11.907Z,48.20
2024-01-07T11:47:40.543Z,48.20
2024-01-07T11:50:10.041Z,48.40
2024-01-07T11:52:40.201Z,48.60
2024-01-07T11:55:10.401Z,48.70
2024-01-07T11:57:38.929Z,48.80
2024-01-07T12:00:11.128Z,48.80
2024-01-07T12:02:42.520Z,48.80
2024-01-07T12:05:11.786Z,48.40
2024-01-07T12:07:41.434Z,48.50
2024-01-07T12:10:12.912Z,48.70
2024-01-07T12:12:42.528Z,50.20
2024-01-07T12:15:13.337Z,50.70
2024-01-07T12:17:41.873Z,50.70
2024-01-07T12:20:12.674Z,50.90
2024-01-07T12:22:40.306Z,52.00
2024-01-07T12:25:09.827Z,57.10
2024-01-07T12:27:38.597Z,58.50
2024-01-07T12:30:08.649Z,60.40
2024-01-07T12:32:39.214Z,62.50
2024-01-07T12:35:10.017Z,66.70
2024-01-07T12:37:40.024Z,65.00
2024-01-07T12:40:12.165Z,65.20
2024-01-07T12:42:45.973Z,66.20
2024-01-07T12:45:18.762Z,68.40
2024-01-07T12:47:48.722Z,69.60
2024-01-07T12:50:17.942Z,67.00
2024-01-07T12:52:46.822Z,68.70
2024-01-07T12:55:15.277Z,70.10
2024-01-07T12:57:43.712Z,68.40
2024-01-07T13:00:14.047Z,73.80
2024-01-07T13:02:42.661Z,73.40
2024-01-07T13:05:12.891Z,70.90
2024-01-07T13:07:41.612Z,69.70
2024-01-07T13:10:11.415Z,68.60
2024-01-07T13:12:47.352Z,66.70
2024-01-07T13:15:19.195Z,66.30
2024-01-07T13:17:47.680Z,60.70
2024-01-07T13:20:20.979Z,58.20
2024-01-07T13:22:49.868Z,57.90
2024-01-07T13:25:18.575Z,57.10
2024-01-07T13:27:48.189Z,57.30
2024-01-07T13:30:17.720Z,57.40
2024-01-07T13:32:46.751Z,57.70
2024-01-07T13:35:16.732Z,57.70
2024-01-07T13:37:48.148Z,57.20
2024-01-07T13:40:18.207Z,56.70
2024-01-07T13:42:46.994Z,56.20
2024-01-07T13:45:15.622Z,56.00
2024-01-07T13:47:44.708Z,55.60
2024-01-07T13:50:13.144Z,55.40
2024-01-07T13:52:42.180Z,55.30
2024-01-07T13:55:12.284Z,55.20
2024-01-07T13:57:43.391Z,55.00
2024-01-07T14:00:19.579Z,55.10
2024-01-07T14:02:48.354Z,55.00
2024-01-07T14:05:17.433Z,54.70
2024-01-07T14:07:49.077Z,54.70
2024-01-07T14:10:20.871Z,54.70
2024-01-07T14:12:49.733Z,54.60
2024-01-07T14:15:19.620Z,54.50
2024-01-07T14:17:49.750Z,54.30
2024-01-07T14:20:18.434Z,54.20
2024-01-07T14:22:46.905Z,53.90
2024-01-07T14:25:16.149Z,53.50
2024-01-07T14:27:45.992Z,53.40
2024-01-07T14:30:15.644Z,53.30
2024-01-07T14:32:45.341Z,53.20
2024-01-07T14:35:14.672Z,53.40
2024-01-07T14:37:43.058Z,53.60
2024-01-07T14:40:12.010Z,53.70
2024-01-07T14:42:40.497Z,53.80
2024-01-07T14:45:11.545Z,53.70
2024-01-07T14:47:40.066Z,53.70
2024-01-07T14:50:09.954Z,53.70
2024-01-07T14:52:38.262Z,53.60
2024-01-07T14:55:07.561Z,53.70
2024-01-07T14:57:35.976Z,53.70
2024-01-07T15:00:06.257Z,53.60
2024-01-07T15:02:36.648Z,53.60
2024-01-07T15:05:06.131Z,53.70
2024-01-07T15:07:34.619Z,53.80
2024-01-07T15:10:03.168Z,53.80
2024-01-07T15:12:37.610Z,53.90
2024-01-07T15:15:08.118Z,53.90
2024-01-07T15:17:38.205Z,53.80
2024-01-07T15:20:08.806Z,53.80
2024-01-07T15:22:37.380Z,53.90
2024-01-07T15:25:07.908Z,53.80
2024-01-07T15:27:37.763Z,53.60
2024-01-07T15:30:08.890Z,53.40
2024-01-07T15:32:38.782Z,53.50
2024-01-07T15:35:10.065Z,53.30
2024-01-07T15:37:38.491Z,53.20
2024-01-07T15:40:08.728Z,53.20
2024-01-07T15:42:37.230Z,53.20
2024-01-07T15:45:06.720Z,53.20
2024-01-07T15:47:40.009Z,53.30
2024-01-07T15:50:11.682Z,53.10
2024-01-07T15:52:41.378Z,53.10
2024-01-07T15:55:10.686Z,53.10
2024-01-07T15:57:39.210Z,53.00
2024-01-07T16:00:10.558Z,52.80
2024-01-07T16:02:38.963Z,52.90
2024-01-07T16:05:09.768Z,53.00
2024-01-07T16:07:38.317Z,53.00
2024-01-07T16:10:08.129Z,52.00
2024-01-07T16:12:36.710Z,52.70
2024-01-07T16:15:06.976Z,52.90
2024-01-07T16:17:35.397Z,52.90
2024-01-07T16:20:04.076Z,53.20
2024-01-07T16:22:33.987Z,53.30
2024-01-07T16:25:02.438Z,53.40
2024-01-07T16:27:32.453Z,54.00
2024-01-07T16:30:02.462Z,54.60
2024-01-07T16:32:31.765Z,54.50
2024-01-07T16:35:01.234Z,54.30
2024-01-07T16:37:29.809Z,54.40
2024-01-07T16:39:59.663Z,54.10
2024-01-07T16:42:28.147Z,54.60
2024-01-07T16:44:56.886Z,53.90
2024-01-07T16:47:25.412Z,52.80
2024-01-07T16:50:20.705Z,53.70
2024-01-07T16:52:42.449Z,53.00
2024-01-07T16:55:12.585Z,53.30
2024-01-07T16:57:41.275Z,53.40
2024-01-07T17:00:11.375Z,53.80
2024-01-07T17:02:39.833Z,55.60
2024-01-07T17:05:10.355Z,59.60
2024-01-07T17:07:39.281Z,61.20
2024-01-07T17:10:11.444Z,60.50
2024-01-07T17:12:40.215Z,69.00
2024-01-07T17:15:10.086Z,80.80
2024-01-07T17:17:39.032Z,92.20
2024-01-07T17:20:10.118Z,86.50
2024-01-07T17:22:38.837Z,85.00
2024-01-07T17:25:09.169Z,81.70
2024-01-07T17:27:38.975Z,81.40
2024-01-07T17:30:08.899Z,79.40
2024-01-07T17:32:37.619Z,77.20
2024-01-07T17:35:07.589Z,76.00
2024-01-07T17:37:37.786Z,75.10
2024-01-07T17:40:08.308Z,73.80
2024-01-07T17:42:39.853Z,72.40
2024-01-07T17:45:10.689Z,72.40
2024-01-07T17:47:40.756Z,71.90
2024-01-07T17:50:12.008Z,71.20
2024-01-07T17:52:40.689Z,70.50
2024-01-07T17:55:10.750Z,69.80
2024-01-07T17:57:40.649Z,69.40
2024-01-07T18:00:11.124Z,69.70
2024-01-07T18:02:40.500Z,69.50
2024-01-07T18:05:10.668Z,69.90
2024-01-07T18:07:39.385Z,69.10
2024-01-07T18:10:11.556Z,67.70
2024-01-07T18:12:41.850Z,67.20
2024-01-07T18:15:11.381Z,66.50
2024-01-07T18:17:43.689Z,65.30
2024-01-07T18:20:13.541Z,63.80
2024-01-07T18:22:42.279Z,63.90
2024-01-07T18:25:11.734Z,63.20
2024-01-07T18:27:41.616Z,61.60
2024-01-07T18:30:11.666Z,61.70
2024-01-07T18:32:40.289Z,62.60
2024-01-07T18:35:10.140Z,63.40
2024-01-07T18:37:40.292Z,61.10
2024-01-07T18:40:11.964Z,61.60
2024-01-07T18:42:41.830Z,61.20
2024-01-07T18:45:11.111Z,60.20
2024-01-07T18:47:39.865Z,61.90
2024-01-07T18:50:09.064Z,63.00
2024-01-07T18:52:38.043Z,63.30
2024-01-07T18:55:09.580Z,63.20
2024-01-07T18:57:40.111Z,63.00
2024-01-07T19:00:12.104Z,64.50
2024-01-07T19:02:40.515Z,64.20
2024-01-07T19:05:10.528Z,64.30
2024-01-07T19:07:39.279Z,63.50
2024-01-07T19:10:10.070Z,62.30
2024-01-07T19:12:39.098Z,62.50
2024-01-07T19:15:10.089Z,63.10
2024-01-07T19:17:38.903Z,64.00
2024-01-07T19:20:08.807Z,64.90
2024-01-07T19:22:37.246Z,65.40
2024-01-07T19:25:06.987Z,66.10
2024-01-07T19:27:35.866Z,66.30
2024-01-07T19:30:04.495Z,66.10
2024-01-07T19:32:34.630Z,66.00
2024-01-07T19:35:03.592Z,66.30
2024-01-07T19:37:32.152Z,65.70
2024-01-07T19:40:01.191Z,63.50
2024-01-07T19:42:29.617Z,63.60
2024-01-07T19:44:58.741Z,61.60
2024-01-07T19:47:28.394Z,62.00
2024-01-07T19:49:58.855Z,63.40
2024-01-07T19:52:27.243Z,54.50
2024-01-07T19:54:55.547Z,55.80
2024-01-07T19:57:25.676Z,60.40
2024-01-07T19:59:54.986Z,63.80
2024-01-07T20:02:23.397Z,62.10
2024-01-07T20:04:51.785Z,57.10
2024-01-07T20:10:02.607Z,56.40
2024-01-07T20:12:32.743Z,55.90
2024-01-07T20:15:01.240Z,54.60
2024-01-07T20:17:29.759Z,54.20
2024-01-07T20:19:58.309Z,52.60
2024-01-07T20:22:26.730Z,52.70
2024-01-07T20:24:55.093Z,53.60
2024-01-07T20:27:24.815Z,53.10
2024-01-07T20:29:53.393Z,52.50
2024-01-07T20:32:21.900Z,52.80
2024-01-07T20:34:51.262Z,52.90
2024-01-07T20:37:19.673Z,52.90
2024-01-07T20:39:48.123Z,53.10
2024-01-07T20:42:27.353Z,52.80
2024-01-07T20:45:07.580Z,52.20
2024-01-07T20:47:37.261Z,52.20
2024-01-07T20:50:08.437Z,52.30
2024-01-07T20:52:36.878Z,52.20
2024-01-07T20:55:06.088Z,53.00
2024-01-07T20:57:34.563Z,52.00
2024-01-07T21:00:04.350Z,52.20
2024-01-07T21:02:34.893Z,52.20
2024-01-07T21:05:03.990Z,52.30
2024-01-07T21:07:35.654Z,52.10
2024-01-07T21:10:06.740Z,52.10
2024-01-07T21:12:35.150Z,52.20
2024-01-07T21:15:03.759Z,52.10
2024-01-07T21:17:36.015Z,51.60
2024-01-07T21:20:05.057Z,51.60
2024-01-07T21:22:33.574Z,51.20
2024-01-07T21:25:02.922Z,51.30
2024-01-07T21:27:31.891Z,51.70
2024-01-07T21:30:00.919Z,51.70
2024-01-07T21:32:31.467Z,51.60
2024-01-07T21:35:04.591Z,51.60
2024-01-07T21:37:33.892Z,51.40
2024-01-07T21:40:02.489Z,51.30
2024-01-07T21:42:31.285Z,51.90
2024-01-07T21:45:00.236Z,51.40
2024-01-07T21:47:29.406Z,51.30
2024-01-07T21:49:58.025Z,51.40
2024-01-07T21:52:31.816Z,51.40
2024-01-07T21:55:00.840Z,51.40
2024-01-07T21:57:30.342Z,51.40
2024-01-07T21:59:58.954Z,51.50
2024-01-07T22:02:27.587Z,51.30
2024-01-07T22:04:56.111Z,51.50
2024-01-07T22:07:24.739Z,51.50
2024-01-07T22:09:54.554Z,51.40
2024-01-07T22:12:23.000Z,51.30
2024-01-07T22:14:51.540Z,51.30
2024-01-07T22:17:23.077Z,51.40
2024-01-07T22:19:52.115Z,51.40
2024-01-07T22:22:20.690Z,51.30
2024-01-07T22:24:49.140Z,51.30
2024-01-07T22:27:19.228Z,51.30
2024-01-07T22:29:47.823Z,51.20
2024-01-07T22:32:16.699Z,51.30
2024-01-07T22:34:45.351Z,51.20
2024-01-07T22:37:13.964Z,51.20
2024-01-07T22:39:43.209Z,51.60
2024-01-07T22:42:11.790Z,51.10
2024-01-07T22:44:42.086Z,51.20
2024-01-07T22:47:10.771Z,51.30
2024-01-07T22:49:39.511Z,51.60
2024-01-07T22:52:08.278Z,51.40
2024-01-07T22:54:40.153Z,51.30
2024-01-07T22:57:08.759Z,51.10
2024-01-07T22:59:37.278Z,51.10
2024-01-07T23:02:08.092Z,51.10
2024-01-07T23:04:36.773Z,51.10
2024-01-07T23:07:05.430Z,51.00
2024-01-07T23:09:33.911Z,51.50
2024-01-07T23:12:02.456Z,50.80
2024-01-07T23:14:31.212Z,50.60
2024-01-07T23:16:59.926Z,50.60
2024-01-07T23:19:30.003Z,50.50
2024-01-07T23:21:59.037Z,50.40
2024-01-07T23:24:27.638Z,50.40
2024-01-07T23:26:56.148Z,50.30
2024-01-07T23:29:24.690Z,50.20
2024-01-07T23:31:53.541Z,50.20
2024-01-07T23:34:22.505Z,50.20
2024-01-07T23:36:52.449Z,50.10
2024-01-07T23:39:21.349Z,50.10
2024-01-07T23:41:49.893Z,50.10
2024-01-07T23:44:18.568Z,56.50
2024-01-07T23:46:46.978Z,54.80
2024-01-07T23:49:15.606Z,52.10
2024-01-07T23:51:44.090Z,49.50
2024-01-07T23:54:13.972Z,50.40
2024-01-07T23:56:43.071Z,51.10
2024-01-07T23:59:11.973Z,51.90
